Time,TemperatureF,DewpointF,PressureIn,WindDirection,WindDirectionDegrees,WindSpeedMPH,WindSpeedGustMPH,Humidity,HourlyPrecipIn,Conditions,Clouds,dailyrainin,SoftwareType,DateUTC
2013-05-11 00:03:00,64.0,57.0,29.86,SE,139,2.0,2.0,78,0.00,,,0.00,,2013-05-11 04:03:00,
2013-05-11 00:12:00,64.0,57.0,29.86,SE,139,2.0,2.0,78,0.00,,,0.00,,2013-05-11 04:12:00,
2013-05-11 00:23:00,64.0,57.0,29.86,SE,139,2.0,2.0,78,0.00,,,0.00,,2013-05-11 04:23:00,
2013-05-11 00:33:00,67.0,56.0,29.86,SSW,205,3.0,8.0,67,0.00,,,0.00,,2013-05-11 04:33:00,
2013-05-11 00:43:00,67.0,56.0,29.86,SSW,205,3.0,8.0,67,0.00,,,0.00,,2013-05-11 04:43:00,
2013-05-11 00:52:00,67.0,56.0,29.86,SSW,205,3.0,8.0,67,0.00,,,0.00,,2013-05-11 04:52:00,
2013-05-11 01:02:00,69.0,58.0,29.87,WSW,251,3.0,8.0,69,0.03,,,0.03,,2013-05-11 05:02:00,
2013-05-11 01:12:00,69.0,58.0,29.87,WSW,251,3.0,8.0,69,0.03,,,0.03,,2013-05-11 05:12:00,
2013-05-11 01:22:00,66.0,60.0,29.87,West,277,3.0,10.0,80,0.09,,,0.09,,2013-05-11 05:22:00,
2013-05-11 01:32:00,65.0,60.0,29.86,NW,320,0.0,6.0,85,0.12,,,0.12,,2013-05-11 05:32:00,
2013-05-11 01:42:00,65.0,60.0,29.86,NW,320,0.0,6.0,85,0.12,,,0.12,,2013-05-11 05:42:00,
2013-05-11 01:52:00,65.0,60.0,29.86,NW,320,0.0,6.0,85,0.12,,,0.12,,2013-05-11 05:52:00,
2013-05-11 02:02:00,65.0,61.0,29.85,WSW,248,0.0,3.0,88,0.16,,,0.16,,2013-05-11 06:02:00,
2013-05-11 02:12:00,65.0,61.0,29.85,WSW,248,0.0,3.0,88,0.16,,,0.16,,2013-05-11 06:12:00,
2013-05-11 02:22:00,65.0,61.0,29.85,WSW,248,0.0,3.0,88,0.16,,,0.16,,2013-05-11 06:22:00,
2013-05-11 02:32:00,65.0,61.0,29.85,WSW,248,0.0,3.0,88,0.16,,,0.16,,2013-05-11 06:32:00,
2013-05-11 02:42:00,64.0,61.0,29.84,SW,226,0.0,4.0,90,0.05,,,0.19,,2013-05-11 06:42:00,
2013-05-11 02:53:00,64.0,61.0,29.84,SW,226,0.0,4.0,90,0.05,,,0.19,,2013-05-11 06:53:00,
2013-05-11 03:02:00,64.0,61.0,29.84,SW,224,3.0,4.0,91,0.03,,,0.20,,2013-05-11 07:02:00,
2013-05-11 03:12:00,64.0,61.0,29.84,SW,224,3.0,4.0,91,0.03,,,0.20,,2013-05-11 07:12:00,
2013-05-11 03:21:00,64.0,61.0,29.84,SW,224,3.0,4.0,91,0.03,,,0.20,,2013-05-11 07:21:00,
2013-05-11 03:32:00,64.0,61.0,29.84,SW,224,3.0,4.0,91,0.03,,,0.20,,2013-05-11 07:32:00,
2013-05-11 03:42:00,64.0,61.0,29.84,SW,224,3.0,4.0,91,0.03,,,0.20,,2013-05-11 07:42:00,
2013-05-11 03:52:00,64.0,61.0,29.82,SW,219,3.0,3.0,91,0.03,,,0.22,,2013-05-11 07:52:00,
2013-05-11 04:02:00,64.0,62.0,29.81,South,181,5.0,8.0,92,0.02,,,0.22,,2013-05-11 08:02:00,
2013-05-11 04:12:00,64.0,62.0,29.81,South,181,5.0,8.0,92,0.02,,,0.22,,2013-05-11 08:12:00,
2013-05-11 04:21:00,64.0,62.0,29.81,SE,141,3.0,5.0,92,0.02,,,0.22,,2013-05-11 08:21:00,
2013-05-11 04:32:00,63.0,61.0,29.81,South,190,2.0,6.0,92,0.00,,,0.22,,2013-05-11 08:32:00,
2013-05-11 04:42:00,63.0,61.0,29.81,South,178,1.0,5.0,92,0.00,,,0.22,,2013-05-11 08:42:00,
2013-05-11 04:52:00,63.0,61.0,29.81,South,178,1.0,5.0,92,0.00,,,0.22,,2013-05-11 08:52:00,
2013-05-11 05:01:00,63.0,61.0,29.81,SSW,203,0.0,5.0,92,0.01,,,0.23,,2013-05-11 09:01:00,
2013-05-11 05:11:00,63.0,61.0,29.81,SSW,203,0.0,5.0,92,0.01,,,0.23,,2013-05-11 09:11:00,
2013-05-11 05:21:00,63.0,61.0,29.81,SSW,207,3.0,10.0,92,0.01,,,0.23,,2013-05-11 09:21:00,
2013-05-11 05:32:00,63.0,61.0,29.81,SSW,207,3.0,10.0,92,0.01,,,0.23,,2013-05-11 09:32:00,
2013-05-11 05:42:00,63.0,61.0,29.81,SSW,207,3.0,10.0,92,0.01,,,0.23,,2013-05-11 09:42:00,
2013-05-11 05:52:00,63.0,61.0,29.81,SSW,207,3.0,10.0,92,0.01,,,0.23,,2013-05-11 09:52:00,
2013-05-11 06:22:00,63.0,61.0,29.78,South,178,4.0,6.0,92,0.00,,,0.23,,2013-05-11 10:22:00,
2013-05-11 06:33:00,63.0,61.0,29.78,South,184,0.0,3.0,92,0.00,,,0.23,,2013-05-11 10:33:00,
2013-05-11 06:42:00,63.0,61.0,29.78,South,182,0.0,3.0,92,0.00,,,0.23,,2013-05-11 10:42:00,
2013-05-11 06:52:00,63.0,61.0,29.78,South,182,0.0,3.0,92,0.00,,,0.23,,2013-05-11 10:52:00,
2013-05-11 07:02:00,63.0,61.0,29.78,SW,226,1.0,4.0,92,0.00,,,0.23,,2013-05-11 11:02:00,
2013-05-11 07:12:00,63.0,61.0,29.78,SW,226,1.0,4.0,92,0.00,,,0.23,,2013-05-11 11:12:00,
2013-05-11 07:22:00,63.0,61.0,29.78,South,189,3.0,3.0,92,0.00,,,0.23,,2013-05-11 11:22:00,
2013-05-11 07:32:00,63.0,61.0,29.78,South,189,3.0,3.0,92,0.00,,,0.23,,2013-05-11 11:32:00,
2013-05-11 07:42:00,64.0,62.0,29.79,South,189,5.0,12.0,92,0.00,,,0.23,,2013-05-11 11:42:00,
2013-05-11 07:51:00,64.0,62.0,29.79,South,189,5.0,12.0,92,0.00,,,0.23,,2013-05-11 11:51:00,
2013-05-11 08:01:00,64.0,61.0,29.78,South,183,8.0,10.0,91,0.00,,,0.23,,2013-05-11 12:01:00,
2013-05-11 08:11:00,64.0,61.0,29.78,South,183,8.0,10.0,91,0.00,,,0.23,,2013-05-11 12:11:00,
2013-05-11 08:22:00,64.0,61.0,29.79,South,176,4.0,12.0,90,0.00,,,0.23,,2013-05-11 12:22:00,
2013-05-11 08:32:00,64.0,61.0,29.80,SW,220,10.0,12.0,90,0.00,,,0.23,,2013-05-11 12:32:00,
2013-05-11 08:42:00,64.0,61.0,29.80,SSW,196,5.0,12.0,89,0.00,,,0.23,,2013-05-11 12:42:00,
2013-05-11 08:51:00,64.0,61.0,29.80,SSW,196,5.0,12.0,89,0.00,,,0.23,,2013-05-11 12:51:00,
2013-05-11 09:02:00,64.0,61.0,29.79,SW,214,3.0,11.0,89,0.01,,,0.24,,2013-05-11 13:02:00,
2013-05-11 09:11:00,64.0,61.0,29.79,SW,214,3.0,11.0,89,0.01,,,0.24,,2013-05-11 13:11:00,
2013-05-11 09:21:00,64.0,61.0,29.79,SW,214,3.0,11.0,89,0.01,,,0.24,,2013-05-11 13:21:00,
2013-05-11 09:32:00,66.0,62.0,29.78,SW,225,2.0,11.0,88,0.01,,,0.24,,2013-05-11 13:32:00,
2013-05-11 09:42:00,66.0,62.0,29.77,SSE,168,3.0,10.0,88,0.01,,,0.24,,2013-05-11 13:42:00,
2013-05-11 09:52:00,66.0,62.0,29.77,SSE,168,3.0,10.0,88,0.01,,,0.24,,2013-05-11 13:52:00,
2013-05-11 10:02:00,67.0,62.0,29.77,SSE,168,8.0,10.0,85,0.00,,,0.24,,2013-05-11 14:02:00,
2013-05-11 10:11:00,67.0,62.0,29.77,SSE,168,8.0,10.0,85,0.00,,,0.24,,2013-05-11 14:11:00,
2013-05-11 10:21:00,67.0,62.0,29.78,South,180,9.0,18.0,84,0.00,,,0.24,,2013-05-11 14:21:00,
2013-05-11 10:32:00,67.0,62.0,29.78,South,177,5.0,12.0,84,0.00,,,0.24,,2013-05-11 14:32:00,
2013-05-11 10:42:00,67.0,62.0,29.78,SSE,163,5.0,7.0,84,0.00,,,0.24,,2013-05-11 14:42:00,
2013-05-11 10:51:00,67.0,62.0,29.78,SSE,163,5.0,7.0,84,0.00,,,0.24,,2013-05-11 14:51:00,
2013-05-11 11:01:00,67.0,62.0,29.77,SSW,205,10.0,13.0,84,0.00,,,0.24,,2013-05-11 15:01:00,
2013-05-11 11:11:00,67.0,62.0,29.77,SSW,205,10.0,13.0,84,0.00,,,0.24,,2013-05-11 15:11:00,
2013-05-11 11:21:00,67.0,62.0,29.77,SSW,205,10.0,13.0,84,0.00,,,0.24,,2013-05-11 15:21:00,
2013-05-11 11:32:00,68.0,63.0,29.76,South,180,8.0,12.0,83,0.00,,,0.24,,2013-05-11 15:32:00,
2013-05-11 11:43:00,68.0,63.0,29.76,South,184,2.0,8.0,83,0.00,,,0.24,,2013-05-11 15:43:00,
2013-05-11 11:53:00,68.0,63.0,29.76,South,184,2.0,8.0,83,0.00,,,0.24,,2013-05-11 15:53:00,
2013-05-11 12:03:00,68.0,63.0,29.76,South,184,2.0,8.0,83,0.00,,,0.24,,2013-05-11 16:03:00,
2013-05-11 12:12:00,68.0,63.0,29.76,South,184,2.0,8.0,83,0.00,,,0.24,,2013-05-11 16:12:00,
2013-05-11 12:23:00,68.0,63.0,29.76,South,184,2.0,8.0,83,0.00,,,0.24,,2013-05-11 16:23:00,
2013-05-11 12:33:00,68.0,62.0,29.76,South,176,3.0,8.0,81,0.00,,,0.24,,2013-05-11 16:33:00,
2013-05-11 12:42:00,69.0,63.0,29.76,SSW,194,5.0,6.0,80,0.00,,,0.24,,2013-05-11 16:42:00,
2013-05-11 12:53:00,69.0,63.0,29.76,SSW,194,5.0,6.0,80,0.00,,,0.24,,2013-05-11 16:53:00,
2013-05-11 13:02:00,70.0,63.0,29.75,SSW,210,8.0,11.0,79,0.00,,,0.24,,2013-05-11 17:02:00,
2013-05-11 13:12:00,70.0,63.0,29.75,SSW,210,8.0,11.0,79,0.00,,,0.24,,2013-05-11 17:12:00,
2013-05-11 13:22:00,70.0,63.0,29.75,South,185,3.0,7.0,78,0.00,,,0.24,,2013-05-11 17:22:00,
2013-05-11 13:32:00,70.0,62.0,29.74,SSW,213,5.0,13.0,77,0.00,,,0.24,,2013-05-11 17:32:00,
2013-05-11 13:42:00,70.0,62.0,29.73,SSW,200,6.0,16.0,77,0.00,,,0.24,,2013-05-11 17:42:00,
2013-05-11 13:52:00,70.0,62.0,29.73,SSW,200,6.0,16.0,77,0.00,,,0.24,,2013-05-11 17:52:00,
2013-05-11 14:01:00,70.0,62.0,29.73,SSW,200,6.0,16.0,77,0.00,,,0.24,,2013-05-11 18:01:00,
2013-05-11 14:12:00,70.0,62.0,29.73,SSW,200,6.0,16.0,77,0.00,,,0.24,,2013-05-11 18:12:00,
2013-05-11 14:21:00,70.0,62.0,29.73,SSW,200,6.0,16.0,77,0.00,,,0.24,,2013-05-11 18:21:00,
2013-05-11 14:32:00,71.0,63.0,29.71,SSE,162,3.0,13.0,75,0.00,,,0.24,,2013-05-11 18:32:00,
2013-05-11 14:42:00,71.0,63.0,29.71,SSE,162,3.0,13.0,75,0.00,,,0.24,,2013-05-11 18:42:00,
2013-05-11 14:52:00,71.0,63.0,29.71,SSE,162,3.0,13.0,75,0.00,,,0.24,,2013-05-11 18:52:00,
2013-05-11 15:02:00,72.0,63.0,29.70,South,176,5.0,14.0,74,0.00,,,0.24,,2013-05-11 19:02:00,
2013-05-11 15:11:00,72.0,63.0,29.70,South,176,5.0,14.0,74,0.00,,,0.24,,2013-05-11 19:11:00,
2013-05-11 15:22:00,73.0,63.0,29.69,South,182,6.0,12.0,71,0.00,,,0.24,,2013-05-11 19:22:00,
2013-05-11 15:32:00,73.0,63.0,29.69,SSE,163,3.0,8.0,72,0.00,,,0.24,,2013-05-11 19:32:00,
2013-05-11 15:42:00,72.0,62.0,29.67,South,171,5.0,9.0,71,0.00,,,0.24,,2013-05-11 19:42:00,
2013-05-11 15:52:00,72.0,62.0,29.67,South,171,5.0,9.0,71,0.00,,,0.24,,2013-05-11 19:52:00,
2013-05-11 16:02:00,71.0,62.0,29.66,ESE,113,8.0,13.0,73,0.00,,,0.24,,2013-05-11 20:02:00,
2013-05-11 16:12:00,71.0,62.0,29.66,ESE,113,8.0,13.0,73,0.00,,,0.24,,2013-05-11 20:12:00,
2013-05-11 16:22:00,71.0,62.0,29.66,ESE,113,8.0,13.0,73,0.00,,,0.24,,2013-05-11 20:22:00,
2013-05-11 16:32:00,63.0,58.0,29.71,SSW,202,2.0,8.0,85,0.19,,,0.43,,2013-05-11 20:32:00,
2013-05-11 16:42:00,63.0,59.0,29.71,South,180,3.0,5.0,87,0.20,,,0.44,,2013-05-11 20:42:00,
2013-05-11 16:52:00,63.0,59.0,29.71,South,180,3.0,5.0,87,0.20,,,0.44,,2013-05-11 20:52:00,
2013-05-11 17:02:00,63.0,59.0,29.71,South,180,3.0,5.0,87,0.20,,,0.44,,2013-05-11 21:02:00,
2013-05-11 17:11:00,63.0,59.0,29.71,South,180,3.0,5.0,87,0.20,,,0.44,,2013-05-11 21:11:00,
2013-05-11 17:22:00,64.0,61.0,29.70,South,188,0.0,4.0,89,0.08,,,0.45,,2013-05-11 21:22:00,
2013-05-11 17:33:00,65.0,62.0,29.70,South,186,1.0,1.0,89,0.02,,,0.45,,2013-05-11 21:33:00,
2013-05-11 17:43:00,65.0,62.0,29.70,South,186,1.0,1.0,89,0.02,,,0.45,,2013-05-11 21:43:00,
2013-05-11 17:52:00,65.0,62.0,29.70,NW,307,1.0,3.0,89,0.02,,,0.45,,2013-05-11 21:52:00,
2013-05-11 18:02:00,65.0,62.0,29.69,NW,309,0.0,4.0,89,0.00,,,0.45,,2013-05-11 22:02:00,
2013-05-11 18:13:00,65.0,62.0,29.69,NW,309,0.0,4.0,89,0.00,,,0.45,,2013-05-11 22:13:00,
2013-05-11 18:23:00,65.0,62.0,29.69,NW,309,0.0,4.0,89,0.00,,,0.45,,2013-05-11 22:23:00,
2013-05-11 18:33:00,66.0,62.0,29.70,SE,129,2.0,3.0,87,0.00,,,0.45,,2013-05-11 22:33:00,
2013-05-11 18:43:00,66.0,62.0,29.70,SE,129,2.0,3.0,87,0.00,,,0.45,,2013-05-11 22:43:00,
2013-05-11 18:52:00,64.0,60.0,29.70,ESE,109,3.0,8.0,86,0.00,,,0.45,,2013-05-11 22:52:00,
2013-05-11 19:02:00,64.0,60.0,29.70,SSE,155,2.0,3.0,87,0.00,,,0.45,,2013-05-11 23:02:00,
2013-05-11 19:12:00,64.0,60.0,29.70,SSE,155,2.0,3.0,87,0.00,,,0.45,,2013-05-11 23:12:00,
2013-05-11 19:22:00,64.0,60.0,29.69,SSE,161,1.0,8.0,87,0.00,,,0.45,,2013-05-11 23:22:00,
2013-05-11 19:32:00,64.0,60.0,29.70,SSE,164,3.0,4.0,87,0.00,,,0.45,,2013-05-11 23:32:00,
2013-05-11 19:42:00,64.0,60.0,29.70,SSE,160,3.0,4.0,88,0.00,,,0.45,,2013-05-11 23:42:00,
2013-05-11 19:52:00,64.0,60.0,29.70,SSE,160,3.0,4.0,88,0.00,,,0.45,,2013-05-11 23:52:00,
2013-05-11 20:01:00,64.0,60.0,29.70,SSE,160,3.0,3.0,87,0.00,,,0.45,,2013-05-12 00:01:00,
2013-05-11 20:12:00,64.0,60.0,29.70,SSE,160,3.0,3.0,87,0.00,,,0.45,,2013-05-12 00:12:00,
2013-05-11 20:21:00,64.0,60.0,29.70,SSE,162,0.0,0.0,87,0.00,,,0.45,,2013-05-12 00:21:00,
2013-05-11 20:32:00,64.0,60.0,29.69,SSE,161,3.0,3.0,88,0.00,,,0.45,,2013-05-12 00:32:00,
2013-05-11 20:42:00,64.0,60.0,29.69,SSE,161,3.0,3.0,88,0.00,,,0.45,,2013-05-12 00:42:00,
2013-05-11 20:52:00,64.0,60.0,29.69,SSE,161,3.0,3.0,88,0.00,,,0.45,,2013-05-12 00:52:00,
2013-05-11 21:01:00,64.0,60.0,29.69,SSW,202,0.0,3.0,88,0.00,,,0.45,,2013-05-12 01:01:00,
2013-05-11 21:11:00,64.0,60.0,29.69,SSW,202,0.0,3.0,88,0.00,,,0.45,,2013-05-12 01:11:00,
2013-05-11 21:21:00,64.0,60.0,29.69,SSW,202,0.0,3.0,88,0.00,,,0.45,,2013-05-12 01:21:00,
2013-05-11 21:32:00,64.0,60.0,29.69,SSW,203,0.0,3.0,88,0.00,,,0.45,,2013-05-12 01:32:00,
2013-05-11 21:42:00,64.0,60.0,29.69,SSW,203,0.0,3.0,88,0.00,,,0.45,,2013-05-12 01:42:00,
2013-05-11 21:52:00,64.0,60.0,29.69,SSW,203,0.0,3.0,88,0.00,,,0.45,,2013-05-12 01:52:00,
2013-05-11 22:01:00,64.0,60.0,29.69,SSW,203,0.0,3.0,88,0.00,,,0.45,,2013-05-12 02:01:00,
2013-05-11 22:22:00,63.0,60.0,29.69,SSE,160,1.0,4.0,89,0.00,,,0.45,,2013-05-12 02:22:00,
2013-05-11 22:32:00,64.0,61.0,29.69,SSE,167,0.0,4.0,90,0.00,,,0.45,,2013-05-12 02:32:00,
2013-05-11 22:42:00,64.0,61.0,29.69,SSE,167,0.0,4.0,90,0.00,,,0.45,,2013-05-12 02:42:00,
2013-05-11 22:52:00,64.0,61.0,29.69,SSE,167,0.0,4.0,90,0.00,,,0.45,,2013-05-12 02:52:00,
2013-05-11 23:01:00,64.0,61.0,29.69,South,185,2.0,3.0,90,0.00,,,0.45,,2013-05-12 03:01:00,
2013-05-11 23:11:00,64.0,61.0,29.69,South,186,1.0,3.0,90,0.00,,,0.45,,2013-05-12 03:11:00,
2013-05-11 23:22:00,64.0,61.0,29.69,South,186,1.0,3.0,90,0.00,,,0.45,,2013-05-12 03:22:00,
2013-05-11 23:33:00,64.0,61.0,29.68,South,186,3.0,3.0,91,0.00,,,0.45,,2013-05-12 03:33:00,
2013-05-11 23:43:00,64.0,61.0,29.68,South,186,3.0,3.0,91,0.00,,,0.45,,2013-05-12 03:43:00,
2013-05-11 23:53:00,64.0,61.0,29.68,South,186,3.0,3.0,91,0.00,,,0.45,,2013-05-12 03:53:00,